Andersonville, Virginia
Current Conditions -  °F | °C
As of 12:55 PM on Wednesday 28 Jan 2015 (Local Time) from KFVX Reporting Station
Clear Clear  
Wind Chill: 44°   Ceiling: Unl
Heat Index: 47°   Visibility: 10mi
Dew Point:   Wind: 7mph
Humidity: 19%   Direction: 320°NW
Pressure: 30.21"   Gusts: NA
Location:  37.47°N, 78.57°W
Report Text: KFVX 281755Z AUTO 32006KT 10SM CLR 09/M14 A3021 RMK AO2 T00861141 10086 21049
Loading
Personal Weather Stations






























Interactive Weather Map New forecast layout! Learn more

10-Day Weather Forecast

Advertisements
Track Severe Weather on mobile